createdAt,value
2019-04-21T00:00:11.585Z,0.83
2019-04-21T00:30:21.205Z,0.78
2019-04-21T00:45:23.243Z,0.79
2019-04-21T01:00:26.867Z,0.76
2019-04-21T01:15:36.762Z,0.83
2019-04-21T01:30:22.027Z,0.84
2019-04-21T01:45:26.144Z,0.79
2019-04-21T02:00:16.735Z,0.84
2019-04-21T02:15:35.845Z,0.76
2019-04-21T02:30:35.198Z,0.74
2019-04-21T02:45:37.581Z,0.82
2019-04-21T03:15:28.735Z,0.84
2019-04-21T04:00:59.409Z,0.77
2019-04-21T04:15:30.609Z,0.9
2019-04-21T04:45:38.201Z,0.83
2019-04-21T05:00:40.371Z,0.79
2019-04-21T05:15:31.601Z,0.72
2019-04-21T05:45:22.308Z,0.83
2019-04-21T06:00:38.866Z,0.78
2019-04-21T06:15:35.888Z,0.85
2019-04-21T06:30:30.740Z,0.85
2019-04-21T06:45:27.111Z,0.7
2019-04-21T07:00:24.571Z,0.63
2019-04-21T07:15:36.754Z,0.68
2019-04-21T07:45:16.290Z,0.68
2019-04-21T08:00:35.655Z,0.64
2019-04-21T08:15:33.575Z,0.81
2019-04-21T08:30:25.513Z,1.05
2019-04-21T08:45:27.731Z,1.16
2019-04-21T09:00:25.847Z,1.17
2019-04-21T09:15:18.763Z,1.21
2019-04-21T09:30:05.389Z,1.26
2019-04-21T09:45:06.165Z,1.26
2019-04-21T10:00:08.518Z,1.32
2019-04-21T10:15:04.272Z,1.33
2019-04-21T10:30:03.785Z,1.27
2019-04-21T10:45:05.073Z,1.22
2019-04-21T11:00:07.343Z,1.17
2019-04-21T11:15:05.254Z,1.16
2019-04-21T11:30:05.354Z,1.15
2019-04-21T11:45:05.966Z,1.13
2019-04-21T12:00:05.740Z,1.1
2019-04-21T12:15:05.984Z,1.11
2019-04-21T12:30:05.872Z,1.13
2019-04-21T12:45:05.592Z,1.02
2019-04-21T13:00:04.841Z,0.81
2019-04-21T13:15:04.818Z,0.47
2019-04-21T13:30:06.219Z,0.27
2019-04-21T13:45:06.288Z,0.25
2019-04-21T14:00:05.646Z,0.15
2019-04-21T14:15:06.236Z,0.17
2019-04-21T14:30:05.060Z,0.16
2019-04-21T14:45:06.761Z,0.17
2019-04-21T15:00:05.093Z,0.16
2019-04-21T15:15:05.643Z,0.1
2019-04-21T15:30:05.229Z,0.09
2019-04-21T15:45:06.337Z,0.08
2019-04-21T16:00:06.593Z,0.12
2019-04-21T16:15:05.330Z,0.09
2019-04-21T16:30:05.948Z,0.14
2019-04-21T16:45:05.402Z,0.18
2019-04-21T17:00:06.474Z,0.14
2019-04-21T17:15:18.207Z,0.13
2019-04-21T17:30:06.566Z,0.12
2019-04-21T17:45:06.523Z,0.1
2019-04-21T18:00:33.404Z,0.11
2019-04-21T18:15:17.984Z,0.09
2019-04-21T18:30:06.642Z,0.08
2019-04-21T18:45:40.116Z,0.13
2019-04-21T19:00:15.080Z,0.18
2019-04-21T19:15:19.588Z,0.14
2019-04-21T19:30:28.077Z,0.1
2019-04-21T19:45:21.989Z,0.09
2019-04-21T20:00:08.152Z,0.09
2019-04-21T20:15:29.895Z,0.11
2019-04-21T20:45:40.033Z,0.15
2019-04-21T21:00:23.199Z,0.15
2019-04-21T21:15:18.164Z,0.16
2019-04-21T21:30:18.179Z,0.18
2019-04-21T21:45:12.442Z,0.15
2019-04-21T22:00:10.836Z,0.15
2019-04-21T22:15:10.729Z,0.14
2019-04-21T22:30:10.654Z,0.13
2019-04-21T22:45:07.364Z,0.18
2019-04-21T23:00:11.558Z,0.16
2019-04-21T23:15:13.186Z,0.2
2019-04-21T23:30:32.152Z,0.14
2019-04-21T23:45:08.661Z,0.14
